Minerva Virgo — SXXT — position and weather

sailwx.info

Track history (hours):
 
Tides and Currents Weather Stations Pressure Air Temp Water Temp Dewpoint Dewpoint Depression Visibility Wind Speed Wind Dir Waves Ship Positions

Minerva Virgo

Last reported at 2016-Jul-28 04:31 UTC. Time now 2016-Jul-28 04:40 UTC.
Position N 51°53' E 004°22'.

Length 182 m; draft 8.2 m.

Type: Ship (hazmat cat C). MMSI: 240730000.

Date/timePositionNaut miles runAvg speedWind from/ knotsBaromVisibWave heightAir tempDewpointWater temp
2016-Jul-28 04:31N 51°53' E 004°22'0 0.0
2016-Jul-28 03:31N 51°53' E 004°22'0 0.0
2016-Jul-28 02:28N 51°53' E 004°22'0 0.0
2016-Jul-28 01:28N 51°53' E 004°22'0 0.0
2016-Jul-28 00:31N 51°53' E 004°22'0 0.0
2016-Jul-27 23:31N 51°53' E 004°22'0 0.0
2016-Jul-27 22:31N 51°53' E 004°22'0 0.0
2016-Jul-27 21:31N 51°53' E 004°22'0 0.0
2016-Jul-27 20:28N 51°53' E 004°22'0 0.0
2016-Jul-27 19:31N 51°53' E 004°22'0 0.0
2016-Jul-27 18:22N 51°53' E 004°22'0 0.0
2016-Jul-27 17:31N 51°53' E 004°22'0 0.0
2016-Jul-27 16:31N 51°53' E 004°22'0 0.0
2016-Jul-27 15:22N 51°53' E 004°22'0 0.1
2016-Jul-27 14:33N 51°53' E 004°22'4 4.4
2016-Jul-27 13:33N 51°55' E 004°15'8 7.9
2016-Jul-27 12:33N 51°59' E 004°05'1110.9
2016-Jul-27 11:33N 52°01' E 003°47'10 9.6
2016-Jul-27 10:33N 52°09' E 003°39'1 1.0
2016-Jul-27 09:23N 52°10' E 003°40'0 0.0
2016-Jul-27 08:32N 52°10' E 003°39'0 0.1
2016-Jul-27 07:32N 52°10' E 003°39'0 0.0
2016-Jul-27 06:32N 52°10' E 003°39'0 0.1
2016-Jul-27 05:29N 52°10' E 003°39'0 0.0
2016-Jul-27 04:32N 52°10' E 003°39'0 0.1
2016-Jul-27 03:26N 52°10' E 003°39'0 0.1
2016-Jul-27 02:29N 52°10' E 003°39'0 0.0
2016-Jul-27 01:32N 52°10' E 003°39'0 0.0
2016-Jul-27 00:29N 52°10' E 003°39'0 0.2
2016-Jul-26 23:29N 52°10' E 003°39'0 0.0
2016-Jul-26 22:32N 52°10' E 003°39'0 0.0
2016-Jul-26 21:32N 52°10' E 003°39'0 0.0
2016-Jul-26 20:32N 52°10' E 003°39'0 0.0
2016-Jul-26 19:23N 52°10' E 003°39'0 0.0
2016-Jul-26 18:23N 52°10' E 003°39'0 0.0
2016-Jul-26 17:29N 52°10' E 003°39'0 0.1
2016-Jul-26 16:32N 52°10' E 003°39'0 0.1
2016-Jul-26 15:32N 52°10' E 003°39'0 0.0
2016-Jul-26 14:32N 52°10' E 003°39'3 2.7
2016-Jul-26 13:33N 52°11' E 003°43'1010.1
2016-Jul-26 12:33N 52°20' E 003°48'1110.4
2016-Jul-26 11:33N 52°31' E 003°52'10 9.8
2016-Jul-26 10:33N 52°31' E 004°08'6 5.9
2016-Jul-26 09:33N 52°31' E 004°18'0 0.0
2016-Jul-26 08:33N 52°31' E 004°18'0 0.0
2016-Jul-26 07:33N 52°31' E 004°18'0 0.0
2016-Jul-26 06:33N 52°31' E 004°18'0 0.0
2016-Jul-26 05:33N 52°31' E 004°18'0 0.2
2016-Jul-26 04:33N 52°31' E 004°18'0 0.1
2016-Jul-26 03:33N 52°31' E 004°18'0 0.0
2016-Jul-26 02:30N 52°31' E 004°18'0 0.0
2016-Jul-26 01:33N 52°31' E 004°18'0 0.0
2016-Jul-26 00:33N 52°31' E 004°18'0 0.1
2016-Jul-25 23:33N 52°31' E 004°18'0 0.1
2016-Jul-25 22:33N 52°31' E 004°18'0 0.0
2016-Jul-25 21:33N 52°31' E 004°18'0 0.0
2016-Jul-25 20:33N 52°31' E 004°18'0 0.0
2016-Jul-25 19:33N 52°31' E 004°18'0 0.0
2016-Jul-25 18:33N 52°31' E 004°18'0 0.0
2016-Jul-25 17:33N 52°31' E 004°18'0 0.1
2016-Jul-25 16:33N 52°31' E 004°18'0 0.2
2016-Jul-25 15:33N 52°31' E 004°18'0 0.0
2016-Jul-25 14:33N 52°31' E 004°18'0 0.0
2016-Jul-25 13:33N 52°31' E 004°18'0 0.0
2016-Jul-25 12:33N 52°31' E 004°18'0 0.1
2016-Jul-25 11:30N 52°31' E 004°18'0 0.1
2016-Jul-25 10:33N 52°31' E 004°18'0 0.0
2016-Jul-25 09:33N 52°31' E 004°18'0 0.0
2016-Jul-25 08:33N 52°31' E 004°18'0 0.0
2016-Jul-25 07:33N 52°31' E 004°18'0 0.0
2016-Jul-25 06:33N 52°31' E 004°18'0 0.0
2016-Jul-25 05:33N 52°31' E 004°18'0 0.0
2016-Jul-25 04:33N 52°31' E 004°18'0 0.0
2016-Jul-25 03:33N 52°31' E 004°18'0 0.1
2016-Jul-25 02:33N 52°31' E 004°18'0 0.0
2016-Jul-25 01:33N 52°31' E 004°18'0 0.0
2016-Jul-25 00:33N 52°31' E 004°18'0 0.1
2016-Jul-24 23:33N 52°31' E 004°18'0 0.0
2016-Jul-24 22:33N 52°31' E 004°18'0 0.0
2016-Jul-24 21:33N 52°31' E 004°18'0 0.0
2016-Jul-24 20:33N 52°31' E 004°18'0 0.0
2016-Jul-24 19:33N 52°31' E 004°18'0 0.0
2016-Jul-24 18:30N 52°31' E 004°18'0 0.0
2016-Jul-24 17:33N 52°31' E 004°18'0 0.0
2016-Jul-24 16:33N 52°31' E 004°18'0 0.1
2016-Jul-24 15:33N 52°31' E 004°18'0 0.1
2016-Jul-24 14:33N 52°31' E 004°18'0 0.0
2016-Jul-24 13:33N 52°31' E 004°18'0 0.0
2016-Jul-24 12:33N 52°31' E 004°18'0 0.0
2016-Jul-24 11:33N 52°31' E 004°18'0 0.1
2016-Jul-24 10:33N 52°31' E 004°18'0 0.1
2016-Jul-24 09:33N 52°31' E 004°18'0 0.1
2016-Jul-24 08:33N 52°31' E 004°18'0 0.0
2016-Jul-24 07:33N 52°31' E 004°18'0 0.0
2016-Jul-24 06:33N 52°31' E 004°18'0 0.0
2016-Jul-24 05:33N 52°31' E 004°18'0 0.0
2016-Jul-24 04:33N 52°31' E 004°18'0 0.1
2016-Jul-24 03:33N 52°31' E 004°18'0 0.1
2016-Jul-24 02:33N 52°31' E 004°18'0 0.0
2016-Jul-24 01:33N 52°31' E 004°18'0 0.0
2016-Jul-24 00:33N 52°31' E 004°18'0 0.0
2016-Jul-23 23:33N 52°31' E 004°18'5 4.9
2016-Jul-23 22:34N 52°29' E 004°25'7 7.1
2016-Jul-23 21:33N 52°28' E 004°37'4 3.7
2016-Jul-23 20:34N 52°26' E 004°42'4 3.6
2016-Jul-23 19:33N 52°24' E 004°46'0 0.0
2016-Jul-23 18:33N 52°24' E 004°46'0 0.0
2016-Jul-23 17:33N 52°24' E 004°46'0 0.0
2016-Jul-23 16:33N 52°24' E 004°46'0 0.0
2016-Jul-23 15:33N 52°24' E 004°46'0 0.0
2016-Jul-23 14:33N 52°24' E 004°46'0 0.0
2016-Jul-23 13:30N 52°24' E 004°46'0 0.0
2016-Jul-23 12:33N 52°24' E 004°46'0 0.0
2016-Jul-23 11:33N 52°24' E 004°46'0 0.0
2016-Jul-23 10:33N 52°24' E 004°46'0 0.0
2016-Jul-23 09:33N 52°24' E 004°46'0 0.0
2016-Jul-23 08:33N 52°24' E 004°46'0 0.0
2016-Jul-23 07:33N 52°24' E 004°46'0 0.0
2016-Jul-23 06:33N 52°24' E 004°46'0 0.0
2016-Jul-23 04:33N 52°24' E 004°46'0 0.0
2016-Jul-23 03:33N 52°24' E 004°46'0 0.0
2016-Jul-23 02:33N 52°24' E 004°46'0 0.0
2016-Jul-23 01:33N 52°24' E 004°46'0 0.0
2016-Jul-23 00:33N 52°24' E 004°46'0 0.0
2016-Jul-22 23:33N 52°24' E 004°46'0 0.0
2016-Jul-22 22:33N 52°24' E 004°46'0 0.0
2016-Jul-22 21:33N 52°24' E 004°46'0 0.1
2016-Jul-22 20:33N 52°24' E 004°47'3 2.6
2016-Jul-22 19:34N 52°25' E 004°51'0 0.4
2016-Jul-22 18:33N 52°25' E 004°51'0 0.0
2016-Jul-22 17:27N 52°25' E 004°51'0 0.0
2016-Jul-22 16:33N 52°25' E 004°51'0 0.0
2016-Jul-22 15:33N 52°25' E 004°51'0 0.0
2016-Jul-22 14:33N 52°25' E 004°51'0 0.0
2016-Jul-22 13:33N 52°25' E 004°51'0 0.0
2016-Jul-22 12:33N 52°25' E 004°51'0 0.0
2016-Jul-22 11:33N 52°25' E 004°51'0 0.0
2016-Jul-22 10:33N 52°25' E 004°51'0 0.0
2016-Jul-22 09:33N 52°25' E 004°51'0 0.0
2016-Jul-22 08:33N 52°25' E 004°51'0 0.0
2016-Jul-22 07:33N 52°25' E 004°51'0 0.0
2016-Jul-22 05:33N 52°25' E 004°51'0 0.0
2016-Jul-22 04:33N 52°25' E 004°51'0 0.0
2016-Jul-22 03:33N 52°25' E 004°51'0 0.0
2016-Jul-22 02:33N 52°25' E 004°51'0 0.0
2016-Jul-22 01:33N 52°25' E 004°51'0 0.0
2016-Jul-22 00:33N 52°25' E 004°51'0 0.0
2016-Jul-21 23:33N 52°25' E 004°51'0 0.0
2016-Jul-21 22:33N 52°25' E 004°51'0 0.0
2016-Jul-21 21:33N 52°25' E 004°51'0 0.0
2016-Jul-21 20:33N 52°25' E 004°51'0 0.0
2016-Jul-21 19:27N 52°25' E 004°51'0 0.0
2016-Jul-21 18:33N 52°25' E 004°51'0 0.0
2016-Jul-21 17:33N 52°25' E 004°51'0 0.0
2016-Jul-21 16:33N 52°25' E 004°51'0 0.0
2016-Jul-21 15:33N 52°25' E 004°51'0 0.0
2016-Jul-21 14:33N 52°25' E 004°51'0 0.0
2016-Jul-21 13:33N 52°25' E 004°51'0 0.0
2016-Jul-21 12:33N 52°25' E 004°51'0 0.0
2016-Jul-21 11:33N 52°25' E 004°51'0 0.0
2016-Jul-21 10:33N 52°25' E 004°51'0 0.0
2016-Jul-21 09:33N 52°25' E 004°51'0 0.0
2016-Jul-21 08:33N 52°25' E 004°51'0 0.0
2016-Jul-21 07:33N 52°25' E 004°51'0 0.0
2016-Jul-21 06:33N 52°25' E 004°51'0 0.0
2016-Jul-21 05:33N 52°25' E 004°51'0 0.3
2016-Jul-21 04:33N 52°25' E 004°51'7 6.8
2016-Jul-21 03:33N 52°28' E 004°40'2 2.4
2016-Jul-21 02:34N 52°28' E 004°36'8 7.5
2016-Jul-21 01:34N 52°29' E 004°24'3 3.3
2016-Jul-21 00:31N 52°31' E 004°20'0 0.0
2016-Jul-20 23:31N 52°31' E 004°20'0 0.0
2016-Jul-20 22:31N 52°31' E 004°20'0 0.0
2016-Jul-20 21:25N 52°31' E 004°20'0 0.1
2016-Jul-20 20:31N 52°31' E 004°21'0 0.1
2016-Jul-20 19:31N 52°32' E 004°21'0 0.1
2016-Jul-20 18:31N 52°32' E 004°21'0 0.0
2016-Jul-20 17:31N 52°32' E 004°21'0 0.0
2016-Jul-20 16:31N 52°32' E 004°21'0 0.0
2016-Jul-20 15:31N 52°32' E 004°21'0 0.0
2016-Jul-20 14:31N 52°32' E 004°21'0 0.0
2016-Jul-20 13:31N 52°32' E 004°21'0 0.2
2016-Jul-20 12:31N 52°31' E 004°20'0 0.0
2016-Jul-20 11:25N 52°31' E 004°20'0 0.0
2016-Jul-20 10:31N 52°31' E 004°20'0 0.0
2016-Jul-20 09:31N 52°31' E 004°20'0 0.0
2016-Jul-20 08:31N 52°31' E 004°20'0 0.2
2016-Jul-20 07:31N 52°32' E 004°21'0 0.1
2016-Jul-20 06:31N 52°32' E 004°21'0 0.0
2016-Jul-20 05:31N 52°32' E 004°21'0 0.0
2016-Jul-20 04:31N 52°32' E 004°21'0 0.0
2016-Jul-20 03:31N 52°32' E 004°21'0 0.0
2016-Jul-20 02:31N 52°32' E 004°21'0 0.1
2016-Jul-20 01:31N 52°32' E 004°20'0 0.2
2016-Jul-20 00:31N 52°32' E 004°20'0 0.1
2016-Jul-19 23:31N 52°31' E 004°20'0 0.0
2016-Jul-19 22:31N 52°31' E 004°20'0 0.0
2016-Jul-19 21:31N 52°31' E 004°20'0 0.0
2016-Jul-19 20:25N 52°31' E 004°20'0 0.0
2016-Jul-19 19:31N 52°31' E 004°20'0 0.2
2016-Jul-19 18:31N 52°32' E 004°21'0 0.0
2016-Jul-19 17:31N 52°32' E 004°21'0 0.0
2016-Jul-19 16:31N 52°32' E 004°21'0 0.0
2016-Jul-19 15:31N 52°32' E 004°21'0 0.0
2016-Jul-19 14:31N 52°32' E 004°21'0 0.1
2016-Jul-19 13:22N 52°32' E 004°20'0 0.1
2016-Jul-19 12:31N 52°32' E 004°20'0 0.1
2016-Jul-19 11:28N 52°31' E 004°20'0 0.1
2016-Jul-19 10:28N 52°31' E 004°20'0 0.0
2016-Jul-19 09:31N 52°31' E 004°20'0 0.0
2016-Jul-19 08:31N 52°31' E 004°20'0 0.0
2016-Jul-19 07:31N 52°31' E 004°20'0 0.1
2016-Jul-19 04:31N 52°32' E 004°20'0 0.0
2016-Jul-19 03:31N 52°32' E 004°21'0 0.0
2016-Jul-19 02:31N 52°32' E 004°21'0 0.0
2016-Jul-19 01:31N 52°32' E 004°21'0 0.1
2016-Jul-19 00:31N 52°32' E 004°20'0 0.2
2016-Jul-18 23:31N 52°31' E 004°20'0 0.0
2016-Jul-18 22:31N 52°31' E 004°20'0 0.0
2016-Jul-18 21:31N 52°31' E 004°20'0 0.0
2016-Jul-18 20:25N 52°31' E 004°20'0 0.0
2016-Jul-18 19:31N 52°31' E 004°20'0 0.0
2016-Jul-18 18:31N 52°31' E 004°20'0 0.2
2016-Jul-18 17:31N 52°32' E 004°21'0 0.1
2016-Jul-18 16:31N 52°32' E 004°21'0 0.1
2016-Jul-18 15:31N 52°32' E 004°20'0 0.0
2016-Jul-18 14:31N 52°32' E 004°20'0 0.0
2016-Jul-18 13:28N 52°32' E 004°21'0 0.1
2016-Jul-18 12:31N 52°32' E 004°20'0 0.2
2016-Jul-18 11:31N 52°32' E 004°20'0 0.1
2016-Jul-18 10:31N 52°31' E 004°20'0 0.0
2016-Jul-18 09:31N 52°31' E 004°20'0 0.0
2016-Jul-18 08:25N 52°31' E 004°20'0 0.0
2016-Jul-18 07:31N 52°31' E 004°20'0 0.0
2016-Jul-18 06:31N 52°31' E 004°20'0 0.1
2016-Jul-18 05:31N 52°31' E 004°21'0 0.1
2016-Jul-18 04:31N 52°32' E 004°21'  
Track history (hours):
 
Tides and Currents Weather Stations Pressure Air Temp Water Temp Dewpoint Dewpoint Depression Visibility Wind Speed Wind Dir Waves Ship Positions

Minerva Virgo

Last reported at 2016-Jul-28 04:31 UTC. Time now 2016-Jul-28 04:40 UTC.
Position N 51°53' E 004°22'.

Length 182 m; draft 8.2 m.

Type: Ship (hazmat cat C). MMSI: 240730000.

Date/timePositionNaut miles runAvg speedWind from/ knotsBaromVisibWave heightAir tempDewpointWater temp
2016-Jul-28 04:31N 51°53' E 004°22'0 0.0
2016-Jul-28 03:31N 51°53' E 004°22'0 0.0
2016-Jul-28 02:28N 51°53' E 004°22'0 0.0
2016-Jul-28 01:28N 51°53' E 004°22'0 0.0
2016-Jul-28 00:31N 51°53' E 004°22'0 0.0
2016-Jul-27 23:31N 51°53' E 004°22'0 0.0
2016-Jul-27 22:31N 51°53' E 004°22'0 0.0
2016-Jul-27 21:31N 51°53' E 004°22'0 0.0
2016-Jul-27 20:28N 51°53' E 004°22'0 0.0
2016-Jul-27 19:31N 51°53' E 004°22'0 0.0
2016-Jul-27 18:22N 51°53' E 004°22'0 0.0
2016-Jul-27 17:31N 51°53' E 004°22'0 0.0
2016-Jul-27 16:31N 51°53' E 004°22'0 0.0
2016-Jul-27 15:22N 51°53' E 004°22'0 0.1
2016-Jul-27 14:33N 51°53' E 004°22'4 4.4
2016-Jul-27 13:33N 51°55' E 004°15'8 7.9
2016-Jul-27 12:33N 51°59' E 004°05'1110.9
2016-Jul-27 11:33N 52°01' E 003°47'10 9.6
2016-Jul-27 10:33N 52°09' E 003°39'1 1.0
2016-Jul-27 09:23N 52°10' E 003°40'0 0.0
2016-Jul-27 08:32N 52°10' E 003°39'0 0.1
2016-Jul-27 07:32N 52°10' E 003°39'0 0.0
2016-Jul-27 06:32N 52°10' E 003°39'0 0.1
2016-Jul-27 05:29N 52°10' E 003°39'0 0.0
2016-Jul-27 04:32N 52°10' E 003°39'0 0.1
2016-Jul-27 03:26N 52°10' E 003°39'0 0.1
2016-Jul-27 02:29N 52°10' E 003°39'0 0.0
2016-Jul-27 01:32N 52°10' E 003°39'0 0.0
2016-Jul-27 00:29N 52°10' E 003°39'0 0.2
2016-Jul-26 23:29N 52°10' E 003°39'0 0.0
2016-Jul-26 22:32N 52°10' E 003°39'0 0.0
2016-Jul-26 21:32N 52°10' E 003°39'0 0.0
2016-Jul-26 20:32N 52°10' E 003°39'0 0.0
2016-Jul-26 19:23N 52°10' E 003°39'0 0.0
2016-Jul-26 18:23N 52°10' E 003°39'0 0.0
2016-Jul-26 17:29N 52°10' E 003°39'0 0.1
2016-Jul-26 16:32N 52°10' E 003°39'0 0.1
2016-Jul-26 15:32N 52°10' E 003°39'0 0.0
2016-Jul-26 14:32N 52°10' E 003°39'3 2.7
2016-Jul-26 13:33N 52°11' E 003°43'1010.1
2016-Jul-26 12:33N 52°20' E 003°48'1110.4
2016-Jul-26 11:33N 52°31' E 003°52'10 9.8
2016-Jul-26 10:33N 52°31' E 004°08'6 5.9
2016-Jul-26 09:33N 52°31' E 004°18'0 0.0
2016-Jul-26 08:33N 52°31' E 004°18'0 0.0
2016-Jul-26 07:33N 52°31' E 004°18'0 0.0
2016-Jul-26 06:33N 52°31' E 004°18'0 0.0
2016-Jul-26 05:33N 52°31' E 004°18'0 0.2
2016-Jul-26 04:33N 52°31' E 004°18'0 0.1
2016-Jul-26 03:33N 52°31' E 004°18'0 0.0
2016-Jul-26 02:30N 52°31' E 004°18'0 0.0
2016-Jul-26 01:33N 52°31' E 004°18'0 0.0
2016-Jul-26 00:33N 52°31' E 004°18'0 0.1
2016-Jul-25 23:33N 52°31' E 004°18'0 0.1
2016-Jul-25 22:33N 52°31' E 004°18'0 0.0
2016-Jul-25 21:33N 52°31' E 004°18'0 0.0
2016-Jul-25 20:33N 52°31' E 004°18'0 0.0
2016-Jul-25 19:33N 52°31' E 004°18'0 0.0
2016-Jul-25 18:33N 52°31' E 004°18'0 0.0
2016-Jul-25 17:33N 52°31' E 004°18'0 0.1
2016-Jul-25 16:33N 52°31' E 004°18'0 0.2
2016-Jul-25 15:33N 52°31' E 004°18'0 0.0
2016-Jul-25 14:33N 52°31' E 004°18'0 0.0
2016-Jul-25 13:33N 52°31' E 004°18'0 0.0
2016-Jul-25 12:33N 52°31' E 004°18'0 0.1
2016-Jul-25 11:30N 52°31' E 004°18'0 0.1
2016-Jul-25 10:33N 52°31' E 004°18'0 0.0
2016-Jul-25 09:33N 52°31' E 004°18'0 0.0
2016-Jul-25 08:33N 52°31' E 004°18'0 0.0
2016-Jul-25 07:33N 52°31' E 004°18'0 0.0
2016-Jul-25 06:33N 52°31' E 004°18'0 0.0
2016-Jul-25 05:33N 52°31' E 004°18'0 0.0
2016-Jul-25 04:33N 52°31' E 004°18'0 0.0
2016-Jul-25 03:33N 52°31' E 004°18'0 0.1
2016-Jul-25 02:33N 52°31' E 004°18'0 0.0
2016-Jul-25 01:33N 52°31' E 004°18'0 0.0
2016-Jul-25 00:33N 52°31' E 004°18'0 0.1
2016-Jul-24 23:33N 52°31' E 004°18'0 0.0
2016-Jul-24 22:33N 52°31' E 004°18'0 0.0
2016-Jul-24 21:33N 52°31' E 004°18'0 0.0
2016-Jul-24 20:33N 52°31' E 004°18'0 0.0
2016-Jul-24 19:33N 52°31' E 004°18'0 0.0
2016-Jul-24 18:30N 52°31' E 004°18'0 0.0
2016-Jul-24 17:33N 52°31' E 004°18'0 0.0
2016-Jul-24 16:33N 52°31' E 004°18'0 0.1
2016-Jul-24 15:33N 52°31' E 004°18'0 0.1
2016-Jul-24 14:33N 52°31' E 004°18'0 0.0
2016-Jul-24 13:33N 52°31' E 004°18'0 0.0
2016-Jul-24 12:33N 52°31' E 004°18'0 0.0
2016-Jul-24 11:33N 52°31' E 004°18'0 0.1
2016-Jul-24 10:33N 52°31' E 004°18'0 0.1
2016-Jul-24 09:33N 52°31' E 004°18'0 0.1
2016-Jul-24 08:33N 52°31' E 004°18'0 0.0
2016-Jul-24 07:33N 52°31' E 004°18'0 0.0
2016-Jul-24 06:33N 52°31' E 004°18'0 0.0
2016-Jul-24 05:33N 52°31' E 004°18'0 0.0
2016-Jul-24 04:33N 52°31' E 004°18'0 0.1
2016-Jul-24 03:33N 52°31' E 004°18'0 0.1
2016-Jul-24 02:33N 52°31' E 004°18'0 0.0
2016-Jul-24 01:33N 52°31' E 004°18'0 0.0
2016-Jul-24 00:33N 52°31' E 004°18'0 0.0
2016-Jul-23 23:33N 52°31' E 004°18'5 4.9
2016-Jul-23 22:34N 52°29' E 004°25'7 7.1
2016-Jul-23 21:33N 52°28' E 004°37'4 3.7
2016-Jul-23 20:34N 52°26' E 004°42'4 3.6
2016-Jul-23 19:33N 52°24' E 004°46'0 0.0
2016-Jul-23 18:33N 52°24' E 004°46'0 0.0
2016-Jul-23 17:33N 52°24' E 004°46'0 0.0
2016-Jul-23 16:33N 52°24' E 004°46'0 0.0
2016-Jul-23 15:33N 52°24' E 004°46'0 0.0
2016-Jul-23 14:33N 52°24' E 004°46'0 0.0
2016-Jul-23 13:30N 52°24' E 004°46'0 0.0
2016-Jul-23 12:33N 52°24' E 004°46'0 0.0
2016-Jul-23 11:33N 52°24' E 004°46'0 0.0
2016-Jul-23 10:33N 52°24' E 004°46'0 0.0
2016-Jul-23 09:33N 52°24' E 004°46'0 0.0
2016-Jul-23 08:33N 52°24' E 004°46'0 0.0
2016-Jul-23 07:33N 52°24' E 004°46'0 0.0
2016-Jul-23 06:33N 52°24' E 004°46'0 0.0
2016-Jul-23 04:33N 52°24' E 004°46'0 0.0
2016-Jul-23 03:33N 52°24' E 004°46'0 0.0
2016-Jul-23 02:33N 52°24' E 004°46'0 0.0
2016-Jul-23 01:33N 52°24' E 004°46'0 0.0
2016-Jul-23 00:33N 52°24' E 004°46'0 0.0
2016-Jul-22 23:33N 52°24' E 004°46'0 0.0
2016-Jul-22 22:33N 52°24' E 004°46'0 0.0
2016-Jul-22 21:33N 52°24' E 004°46'0 0.1
2016-Jul-22 20:33N 52°24' E 004°47'3 2.6
2016-Jul-22 19:34N 52°25' E 004°51'0 0.4
2016-Jul-22 18:33N 52°25' E 004°51'0 0.0
2016-Jul-22 17:27N 52°25' E 004°51'0 0.0
2016-Jul-22 16:33N 52°25' E 004°51'0 0.0
2016-Jul-22 15:33N 52°25' E 004°51'0 0.0
2016-Jul-22 14:33N 52°25' E 004°51'0 0.0
2016-Jul-22 13:33N 52°25' E 004°51'0 0.0
2016-Jul-22 12:33N 52°25' E 004°51'0 0.0
2016-Jul-22 11:33N 52°25' E 004°51'0 0.0
2016-Jul-22 10:33N 52°25' E 004°51'0 0.0
2016-Jul-22 09:33N 52°25' E 004°51'0 0.0
2016-Jul-22 08:33N 52°25' E 004°51'0 0.0
2016-Jul-22 07:33N 52°25' E 004°51'0 0.0
2016-Jul-22 05:33N 52°25' E 004°51'0 0.0
2016-Jul-22 04:33N 52°25' E 004°51'0 0.0
2016-Jul-22 03:33N 52°25' E 004°51'0 0.0
2016-Jul-22 02:33N 52°25' E 004°51'0 0.0
2016-Jul-22 01:33N 52°25' E 004°51'0 0.0
2016-Jul-22 00:33N 52°25' E 004°51'0 0.0
2016-Jul-21 23:33N 52°25' E 004°51'0 0.0
2016-Jul-21 22:33N 52°25' E 004°51'0 0.0
2016-Jul-21 21:33N 52°25' E 004°51'0 0.0
2016-Jul-21 20:33N 52°25' E 004°51'0 0.0
2016-Jul-21 19:27N 52°25' E 004°51'0 0.0
2016-Jul-21 18:33N 52°25' E 004°51'0 0.0
2016-Jul-21 17:33N 52°25' E 004°51'0 0.0
2016-Jul-21 16:33N 52°25' E 004°51'0 0.0
2016-Jul-21 15:33N 52°25' E 004°51'0 0.0
2016-Jul-21 14:33N 52°25' E 004°51'0 0.0
2016-Jul-21 13:33N 52°25' E 004°51'0 0.0
2016-Jul-21 12:33N 52°25' E 004°51'0 0.0
2016-Jul-21 11:33N 52°25' E 004°51'0 0.0
2016-Jul-21 10:33N 52°25' E 004°51'0 0.0
2016-Jul-21 09:33N 52°25' E 004°51'0 0.0
2016-Jul-21 08:33N 52°25' E 004°51'0 0.0
2016-Jul-21 07:33N 52°25' E 004°51'0 0.0
2016-Jul-21 06:33N 52°25' E 004°51'0 0.0
2016-Jul-21 05:33N 52°25' E 004°51'0 0.3
2016-Jul-21 04:33N 52°25' E 004°51'7 6.8
2016-Jul-21 03:33N 52°28' E 004°40'2 2.4
2016-Jul-21 02:34N 52°28' E 004°36'8 7.5
2016-Jul-21 01:34N 52°29' E 004°24'3 3.3
2016-Jul-21 00:31N 52°31' E 004°20'0 0.0
2016-Jul-20 23:31N 52°31' E 004°20'0 0.0
2016-Jul-20 22:31N 52°31' E 004°20'0 0.0
2016-Jul-20 21:25N 52°31' E 004°20'0 0.1
2016-Jul-20 20:31N 52°31' E 004°21'0 0.1
2016-Jul-20 19:31N 52°32' E 004°21'0 0.1
2016-Jul-20 18:31N 52°32' E 004°21'0 0.0
2016-Jul-20 17:31N 52°32' E 004°21'0 0.0
2016-Jul-20 16:31N 52°32' E 004°21'0 0.0
2016-Jul-20 15:31N 52°32' E 004°21'0 0.0
2016-Jul-20 14:31N 52°32' E 004°21'0 0.0
2016-Jul-20 13:31N 52°32' E 004°21'0 0.2
2016-Jul-20 12:31N 52°31' E 004°20'0 0.0
2016-Jul-20 11:25N 52°31' E 004°20'0 0.0
2016-Jul-20 10:31N 52°31' E 004°20'0 0.0
2016-Jul-20 09:31N 52°31' E 004°20'0 0.0
2016-Jul-20 08:31N 52°31' E 004°20'0 0.2
2016-Jul-20 07:31N 52°32' E 004°21'0 0.1
2016-Jul-20 06:31N 52°32' E 004°21'0 0.0
2016-Jul-20 05:31N 52°32' E 004°21'0 0.0
2016-Jul-20 04:31N 52°32' E 004°21'0 0.0
2016-Jul-20 03:31N 52°32' E 004°21'0 0.0
2016-Jul-20 02:31N 52°32' E 004°21'0 0.1
2016-Jul-20 01:31N 52°32' E 004°20'0 0.2
2016-Jul-20 00:31N 52°32' E 004°20'0 0.1
2016-Jul-19 23:31N 52°31' E 004°20'0 0.0
2016-Jul-19 22:31N 52°31' E 004°20'0 0.0
2016-Jul-19 21:31N 52°31' E 004°20'0 0.0
2016-Jul-19 20:25N 52°31' E 004°20'0 0.0
2016-Jul-19 19:31N 52°31' E 004°20'0 0.2
2016-Jul-19 18:31N 52°32' E 004°21'0 0.0
2016-Jul-19 17:31N 52°32' E 004°21'0 0.0
2016-Jul-19 16:31N 52°32' E 004°21'0 0.0
2016-Jul-19 15:31N 52°32' E 004°21'0 0.0
2016-Jul-19 14:31N 52°32' E 004°21'0 0.1
2016-Jul-19 13:22N 52°32' E 004°20'0 0.1
2016-Jul-19 12:31N 52°32' E 004°20'0 0.1
2016-Jul-19 11:28N 52°31' E 004°20'0 0.1
2016-Jul-19 10:28N 52°31' E 004°20'0 0.0
2016-Jul-19 09:31N 52°31' E 004°20'0 0.0
2016-Jul-19 08:31N 52°31' E 004°20'0 0.0
2016-Jul-19 07:31N 52°31' E 004°20'0 0.1
2016-Jul-19 04:31N 52°32' E 004°20'0 0.0
2016-Jul-19 03:31N 52°32' E 004°21'0 0.0
2016-Jul-19 02:31N 52°32' E 004°21'0 0.0
2016-Jul-19 01:31N 52°32' E 004°21'0 0.1
2016-Jul-19 00:31N 52°32' E 004°20'0 0.2
2016-Jul-18 23:31N 52°31' E 004°20'0 0.0
2016-Jul-18 22:31N 52°31' E 004°20'0 0.0
2016-Jul-18 21:31N 52°31' E 004°20'0 0.0
2016-Jul-18 20:25N 52°31' E 004°20'0 0.0
2016-Jul-18 19:31N 52°31' E 004°20'0 0.0
2016-Jul-18 18:31N 52°31' E 004°20'0 0.2
2016-Jul-18 17:31N 52°32' E 004°21'0 0.1
2016-Jul-18 16:31N 52°32' E 004°21'0 0.1
2016-Jul-18 15:31N 52°32' E 004°20'0 0.0
2016-Jul-18 14:31N 52°32' E 004°20'0 0.0
2016-Jul-18 13:28N 52°32' E 004°21'0 0.1
2016-Jul-18 12:31N 52°32' E 004°20'0 0.2
2016-Jul-18 11:31N 52°32' E 004°20'0 0.1
2016-Jul-18 10:31N 52°31' E 004°20'0 0.0
2016-Jul-18 09:31N 52°31' E 004°20'0 0.0
2016-Jul-18 08:25N 52°31' E 004°20'0 0.0
2016-Jul-18 07:31N 52°31' E 004°20'0 0.0
2016-Jul-18 06:31N 52°31' E 004°20'0 0.1
2016-Jul-18 05:31N 52°31' E 004°21'0 0.1
2016-Jul-18 04:31N 52°32' E 004°21'  

Dump ship's entire track history